Terminal Aerodrome Forecast
Issued by NWS Grand Forks, ND

Home | Current Version | Previous Version | Text Only | Print | Product List | Glossary On
Versions: 1 2 3 4 5 6 7 8 9 10 11 12 13 14 15 16 17 18 19 20
000
FTUS43 KFGF 272323
TAFGFK
TAF
KGFK 272323Z 2800/2824 VRB18G27KT 2SM TSRA BKN050CB OVC100
      TEMPO 2800/2801 4SM -TSRA
     FM280100 13015KT P6SM VCTS BKN060CB
     FM280400 35014KT P6SM BKN250
     FM280600 31006KT P6SM SCT250
     FM281800 34013G22KT P6SM BKN100=

USA.gov is the U.S. government's official web portal to all federal, state and local government web resources and services.